Conroe, TX

9:12 AM CDT on August 28, 2016 (GMT -0500)
Roy Harris Loop Conroe | | Change Station

Elev 220 ft 30.30 °N, 95.37 °W | Updated 11 minutes ago

Partly Cloudy
Partly Cloudy
78.5 °F
Feels Like 81 °F
N
9.0
Wind Variable Wind from ENE
Gusts 13.0 mph

Today
High -- | Low -- °F
--% Chance of Precip.
Yesterday
High -- | Low -- °F
Precip. -- in
Pressure 30.00 in
Visibility 10.0 miles
Clouds Few 8000 ft
Heat Index 81 °F
Dew Point 73 °F
Humidity 84%
Rainfall 0.00 in
Snow Depth Not available.
6:56 AM 7:48 PM
Waning Crescent, 15% visible
METAR KCXO 281353Z 03009KT 10SM FEW080 26/22 A3001 RMK AO2 SLP158 T02560222
Pressure 30.00 in
Visibility 10.0 miles
Clouds Few 8000 ft
Heat Index 81 °F
Dew Point 73 °F
Humidity 84%
Rainfall 0.00 in
Snow Depth Not available.
6:56 AM 7:48 PM
Waning Crescent, 15% visible
METAR KCXO 281353Z 03009KT 10SM FEW080 26/22 A3001 RMK AO2 SLP158 T02560222

10-Day Weather Forecast

Almanac

Astronomy

Aug. 28, 2016 Rise Set
Actual Time
Civil Twilight
Nautical Twilight
Astronomical Twilight
Moon
Length of Visible Light
Length of Day
Tomorrow will be .
, % of the Moon is Illuminated

Today's Extremes

State Highs State Lows

Community

WunderPhotos

Upload Photos

1,935,574 photos uploaded!

WunderBlog® & News

Nearby

Air Quality

  Air Quality AQ Index Pollutant
Not available.

Snow Depth

Station Depth Elevation

Earthquake Activity

City Distance Mag. Time & Date
Minimum magnitude displayed is 2.5.

Coastal Water Temperatures

Place Temperature

Stations

Nearby Weather Stations

Station Location Temp. Windchill Dew Point Humidity Wind Precip. Elev Updated Type
                   

Watches & Warnings

There are currently no watches in effect.